Flight Track Log - Related Links

Times and Time Zones

All times are in EDT time to prevent confusion due to time zone crossing. See the SWA2697 flight status page for this flight to view local times or setup timezone preferences in your user account.

Time Position Orientation Groundspeed Altitude Reporting Facility
EDT Latitude Longitude Course Direction KTS MPH feet Rate Location/Type
Wed 07:17:19 AM 41.8333 -87.7333 255° West 209 241 2,300  Level Chicago TRACON
Wed 07:18:19 AM 41.8167 -87.8167 255° West 247 284 3,000 1,419 Climbing Chicago TRACON
Wed 07:19:47 AM 41.7864 -87.9367 251° West 268 308 5,800 2,980 Climbing Chicago Center
Wed 07:20:48 AM 41.7814 -88.0331 266° West 265 305 10,400 3,836 Climbing Chicago Center
Wed 07:21:49 AM 41.7797 -88.1239 269° West 251 289 13,600 2,705 Climbing Chicago Center
Wed 07:22:50 AM 41.7778 -88.2228 269° West 263 303 15,900 1,659 Climbing Chicago Center
Wed 07:23:52 AM 41.7731 -88.3425 267° West 324 373 17,000 1,659 Climbing Chicago Center
Wed 07:24:53 AM 41.7703 -88.4781 268° West 362 417 19,300 2,902 Climbing Chicago Center
Wed 07:25:54 AM 41.7986 -88.6361 284° West 368 423 22,900 2,049 Climbing Chicago Center
Wed 07:26:56 AM 41.8131 -88.7689 278° West 362 417 23,500 1,317 Climbing Chicago Center
Wed 07:27:57 AM 41.8286 -88.9036 279° West 367 422 25,600 2,164 Climbing Chicago Center
Wed 07:28:58 AM 41.8444 -89.0406 279° West 374 430 27,900 1,891 Climbing Chicago Center
Wed 07:30:00 AM 41.8792 -89.1751 286° West  Level FlightAware Approximate
Wed 07:31:01 AM 41.8711 -89.3014 286° West 356 410 31,400  Level Chicago Center
Wed 07:32:03 AM 41.8683 -89.4419 269° West 385 443 31,500 780 Climbing Chicago Center
Wed 07:33:04 AM 41.8647 -89.6189 268° West 397 457 33,000 1,220 Climbing Chicago Center
Wed 07:34:06 AM 41.8636 -89.7639 269° West 393 452 34,000 488 Climbing Chicago Center
Wed 07:35:07 AM 41.8600 -89.9069 268° West 388 447 34,000  Level Chicago Center
Wed 07:36:09 AM 41.8581 -90.0453 269° West 391 450 34,000 732 Level Chicago Center
Wed 07:37:10 AM 41.8556 -90.1889 269° West 391 450 35,500 1,317 Climbing Chicago Center
Wed 07:38:12 AM 41.8514 -90.3306 268° West 385 443 36,700 1,122 Climbing Chicago Center
Wed 07:39:13 AM 41.8478 -90.4981 268° West 379 436 37,800 634 Climbing Chicago Center
Wed 07:40:15 AM 41.8433 -90.6400 268° West 383 441 38,000 98 Climbing Chicago Center
Wed 07:41:16 AM 41.8389 -90.7828 268° West 384 442 38,000  Level Chicago Center
Wed 07:42:18 AM 41.8356 -90.9217 268° West 377 434 38,000  Level Chicago Center
Wed 07:43:19 AM 41.8308 -91.0614 267° West 376 433 38,000  Level Chicago Center
Wed 07:44:21 AM 41.8267 -91.2011 268° West 379 436 38,000  Level Chicago Center
Wed 07:45:22 AM 41.8222 -91.3428 268° West 382 440 38,000  Level Chicago Center
Wed 07:46:24 AM 41.8164 -91.5144 267° West 386 444 38,000  Level Chicago Center
Wed 07:47:25 AM 41.8117 -91.6553 267° West 383 441 38,000  Level Chicago Center
Wed 07:48:27 AM 41.8061 -91.7950 267° West 379 436 38,000  Level Chicago Center
Wed 07:49:28 AM 41.8006 -91.9333 267° West 375 432 38,000  Level Chicago Center
Wed 07:50:30 AM 41.7953 -92.0719 267° West 374 430 38,000  Level Chicago Center
Wed 07:51:31 AM 41.7897 -92.2094 267° West 372 428 38,000  Level Chicago Center
Wed 07:52:33 AM 41.7839 -92.3472 267° West 373 429 38,000  Level Chicago Center
Wed 07:53:34 AM 41.7775 -92.5156 267° West 377 434 38,000  Level Chicago Center
Wed 07:54:41 AM 41.7719 -92.6531 267° West 371 427 38,000  Level Minneapolis Center
Wed 07:55:42 AM 41.7656 -92.7878 266° West 366 421 38,000  Level Minneapolis Center
Wed 07:56:43 AM 41.7581 -92.9275 266° West 361 415 38,000  Level Minneapolis Center
Wed 07:57:44 AM 41.7525 -93.0617 267° West 363 418 38,000  Level Minneapolis Center
Wed 07:58:45 AM 41.7486 -93.1942 268° West 361 415 38,000  Level Minneapolis Center
Wed 07:59:46 AM 41.7725 -93.3281 283° West 374 430 38,000  Level Minneapolis Center
Wed 08:00:47 AM 41.7975 -93.4619 284° West 373 429 38,000  Level Minneapolis Center
Wed 08:01:48 AM 41.8281 -93.6197 285° West 369 425 38,000  Level Minneapolis Center
Wed 08:02:49 AM 41.8556 -93.7539 285° West 374 430 38,000  Level Minneapolis Center
Wed 08:03:50 AM 41.8792 -93.8619 286° West 378 435 38,000  Level Minneapolis Center
Wed 08:04:51 AM 41.9144 -94.0108 288° West 376 433 38,000 49 Level Minneapolis Center
Wed 08:05:52 AM 41.9439 -94.1453 286° West 375 432 38,100  Climbing Minneapolis Center
Wed 08:06:53 AM 41.9783 -94.3081 286° West 377 434 38,000 -49 Descending Minneapolis Center
Wed 08:07:54 AM 42.0069 -94.4433 286° West 377 434 38,000  Level Minneapolis Center
Wed 08:08:55 AM 42.0231 -94.5797 279° West 371 427 38,000  Level Minneapolis Center
Wed 08:09:56 AM 42.0233 -94.7164 270° West 367 422 38,000  Level Minneapolis Center
Wed 08:10:58 AM 42.0289 -94.8578 273° West 373 429 38,000  Level Minneapolis Center
Wed 08:11:59 AM 42.0311 -94.9986 271° West 377 434 38,000  Level Minneapolis Center
Wed 08:13:00 AM 42.0331 -95.1417 271° West 381 438 38,000  Level Minneapolis Center
Wed 08:14:01 AM 42.0367 -95.2861 272° West 387 445 38,000  Level Minneapolis Center
Wed 08:15:02 AM 42.0386 -95.4347 271° West 396 456 38,000  Level Minneapolis Center
Wed 08:16:04 AM 42.0414 -95.5828 271° West 396 456 38,000  Level Minneapolis Center
Wed 08:17:05 AM 42.0442 -95.7614 271° West 399 459 38,000  Level Minneapolis Center
Wed 08:18:06 AM 42.0467 -95.9089 271° West 397 457 38,000  Level Minneapolis Center
Wed 08:19:07 AM 42.0481 -96.0575 271° West 398 458 38,000  Level Minneapolis Center
Wed 08:20:09 AM 42.0494 -96.2064 271° West 400 460 38,000  Level Minneapolis Center
Wed 08:21:10 AM 42.0508 -96.3569 271° West 402 463 38,000  Level Minneapolis Center
Wed 08:22:11 AM 42.0525 -96.5122 271° West 413 475 38,000  Level Minneapolis Center
Wed 08:23:12 AM 42.0533 -96.6661 270° West 414 476 38,000  Level Minneapolis Center
Wed 08:24:14 AM 42.0536 -96.8214 270° West 416 479 38,000  Level Minneapolis Center
Wed 08:25:15 AM 42.0550 -97.0092 271° West 420 483 38,000  Level Minneapolis Center
Wed 08:26:16 AM 42.0544 -97.1647 270° West 419 482 38,000  Level Minneapolis Center
Wed 08:27:18 AM 42.0550 -97.3228 270° West 421 484 38,000  Level Minneapolis Center
Wed 08:28:19 AM 42.0558 -97.4822 270° West 425 489 38,000  Level Minneapolis Center
Wed 08:29:20 AM 42.0553 -97.6397 270° West 423 487 38,000  Level Minneapolis Center
Wed 08:30:22 AM 42.0544 -97.7961 270° West 421 484 38,000  Level Minneapolis Center
Wed 08:31:23 AM 42.0539 -97.9506 270° West 416 479 38,000  Level Minneapolis Center
Wed 08:32:24 AM 42.0525 -98.1036 269° West 412 474 38,000  Level Minneapolis Center
Wed 08:33:26 AM 42.0514 -98.2719 270° West 409 471 38,000  Level Minneapolis Center
Wed 08:34:27 AM 42.0508 -98.4247 270° West 409 471 38,000  Level Minneapolis Center
Wed 08:35:28 AM 42.0489 -98.5769 269° West 409 471 38,000  Level Minneapolis Center
Wed 08:36:30 AM 42.0467 -98.7300 269° West 410 472 38,000  Level Minneapolis Center
Wed 08:37:31 AM 42.0458 -98.8833 270° West 411 473 38,000  Level Minneapolis Center
Wed 08:38:32 AM 42.0439 -99.0367 269° West 412 474 38,000 51 Level Minneapolis Center
Wed 08:39:28 AM 42.0400 -99.1906 268° West 411 473 38,100  Climbing Denver Center
Wed 08:40:28 AM 42.0383 -99.3442 269° West 412 474 38,000 -50 Descending Denver Center
Wed 08:41:29 AM 42.0361 -99.4961 269° West 410 472 38,000  Level Denver Center
Wed 08:42:30 AM 42.0325 -99.6461 268° West 404 465 38,000  Level Denver Center
Wed 08:43:31 AM 42.0289 -99.8067 268° West 406 467 38,000  Level Denver Center
Wed 08:44:32 AM 42.0253 -99.9747 268° West 404 465 38,000  Level Denver Center
Wed 08:45:32 AM 42.0225 -100.1183 269° West 402 463 38,000  Level Denver Center
Wed 08:46:33 AM 42.0192 -100.2628 268° West 403 464 38,000  Level Denver Center
Wed 08:47:34 AM 42.0142 -100.4283 268° West 400 460 38,000  Level Denver Center
Wed 08:48:35 AM 42.0111 -100.5714 268° West 401 461 38,000  Level Denver Center
Wed 08:49:36 AM 42.0075 -100.7144 268° West 401 461 38,000  Level Denver Center
Wed 08:50:37 AM 42.0025 -100.8803 268° West 399 459 38,000  Level Denver Center
Wed 08:51:38 AM 41.9975 -101.0222 267° West 397 457 38,000  Level Denver Center
Wed 08:52:38 AM 41.9931 -101.1642 268° West 398 458 38,000  Level Denver Center
Wed 08:53:39 AM 41.9883 -101.3264 268° West 392 451 38,000  Level Denver Center
Wed 08:54:40 AM 41.9836 -101.4642 267° West 387 445 38,000  Level Denver Center
Wed 08:55:41 AM 41.9767 -101.6250 267° West 387 445 38,000  Level Denver Center
Wed 08:56:42 AM 41.9717 -101.7622 267° West 385 443 38,000  Level Denver Center
Wed 08:57:43 AM 41.9661 -101.9000 267° West 386 444 38,000  Level Denver Center
Wed 08:58:44 AM 41.9603 -102.0614 267° West 387 445 38,000  Level Denver Center
Wed 08:59:44 AM 41.9533 -102.2019 266° West 393 452 38,000  Level Denver Center
Wed 09:00:45 AM 41.9475 -102.3564 267° West 391 450 38,000  Level Denver Center
Wed 09:01:46 AM 41.9411 -102.4939 266° West 388 447 38,000  Level Denver Center
Wed 09:02:47 AM 41.9350 -102.6325 267° West 389 448 38,000  Level Denver Center
Wed 09:03:48 AM 41.9269 -102.7931 266° West 387 445 38,000  Level Denver Center
Wed 09:04:49 AM 41.9217 -102.9294 267° West 384 442 38,000  Level Denver Center
Wed 09:05:50 AM 41.9144 -103.0653 266° West 382 440 38,000  Level Denver Center
Wed 09:06:51 AM 41.9064 -103.2247 266° West 383 441 38,000  Level Denver Center
Wed 09:07:52 AM 41.8997 -103.3625 266° West 386 444 38,000  Level Denver Center
Wed 09:08:52 AM 41.8906 -103.4981 265° West 383 441 38,000  Level Denver Center
Wed 09:09:53 AM 41.8536 -103.6500 252° West 380 437 38,000  Level Denver Center
Wed 09:10:54 AM 41.8231 -103.7781 252° West 378 435 38,000  Level Denver Center
Wed 09:11:55 AM 41.7914 -103.9122 252° West 390 449 38,000  Level Denver Center
Wed 09:12:56 AM 41.7542 -104.0650 252° West 388 447 38,000  Level Denver Center
Wed 09:13:57 AM 41.7211 -104.1989 252° West 392 451 38,000  Level Denver Center
Wed 09:14:58 AM 41.6883 -104.3331 252° West 396 456 38,000  Level Denver Center
Wed 09:15:59 AM 41.6503 -104.4878 252° West 393 452 38,000  Level Denver Center
Wed 09:17:00 AM 41.6164 -104.6219 251° West 397 457 38,000  Level Denver Center
Wed 09:18:01 AM 41.5836 -104.7553 252° West 395 455 38,000  Level Denver Center
Wed 09:19:02 AM 41.5453 -104.9119 252° West 397 457 38,000  Level Denver Center
Wed 09:20:03 AM 41.5122 -105.0433 251° West 393 452 38,000  Level Denver Center
Wed 09:21:03 AM 41.4783 -105.1739 251° West 390 449 38,000  Level Denver Center
Wed 09:22:04 AM 41.4386 -105.3303 251° West 395 455 38,000  Level Denver Center
Wed 09:23:05 AM 41.4036 -105.4653 251° West 400 460 38,000  Level Denver Center
Wed 09:24:06 AM 41.3689 -105.5981 251° West 399 459 38,000  Level Denver Center
Wed 09:25:07 AM 41.3222 -105.7475 247° West 392 451 38,000  Level Denver Center
Wed 09:26:08 AM 41.2597 -105.8603 234° Southwest 395 455 38,000  Level Denver Center
Wed 09:27:09 AM 41.1983 -105.9697 233° Southwest 389 448 38,000  Level Denver Center
Wed 09:28:10 AM 41.1256 -106.1003 234° Southwest 393 452 38,000  Level Denver Center
Wed 09:29:11 AM 41.0644 -106.2075 233° Southwest 398 458 38,000  Level Denver Center
Wed 09:30:12 AM 40.9933 -106.3364 234° Southwest 391 450 38,000  Level Denver Center
Wed 09:31:13 AM 40.9292 -106.4458 232° Southwest 393 452 38,000  Level Denver Center
Wed 09:32:13 AM 40.8661 -106.5550 233° Southwest 392 451 38,000  Level Denver Center
Wed 09:33:14 AM 40.7939 -106.6822 233° Southwest 388 447 38,000  Level Denver Center
Wed 09:34:15 AM 40.7281 -106.7986 233° Southwest 387 445 38,000  Level Denver Center
Wed 09:35:16 AM 40.6617 -106.9128 233° Southwest 392 451 38,000  Level Denver Center
Wed 09:36:17 AM 40.5958 -107.0258 233° Southwest 390 449 38,000  Level Denver Center
Wed 09:37:18 AM 40.5300 -107.1400 233° Southwest 392 451 38,000  Level Denver Center
Wed 09:38:19 AM 40.4656 -107.2508 233° Southwest 395 455 38,000  Level Denver Center
Wed 09:39:20 AM 40.3911 -107.3789 233° Southwest 396 456 38,000  Level Denver Center
Wed 09:40:21 AM 40.3253 -107.4889 232° Southwest 399 459 38,000  Level Denver Center
Wed 09:41:22 AM 40.2614 -107.5989 233° Southwest 397 457 38,000  Level Denver Center
Wed 09:42:23 AM 40.1847 -107.7267 232° Southwest 400 460 38,000  Level Denver Center
Wed 09:43:24 AM 40.1206 -107.8367 233° Southwest 397 457 38,000  Level Denver Center
Wed 09:44:25 AM 40.0558 -107.9453 232° Southwest 396 456 38,000  Level Denver Center
Wed 09:45:26 AM 39.9886 -108.0800 237° Southwest 396 456 38,000  Level Denver Center
Wed 09:46:27 AM 39.9303 -108.1936 236° Southwest 394 453 38,000  Level Denver Center
Wed 09:47:28 AM 39.8625 -108.3267 236° Southwest 386 444 38,000  Level Denver Center
Wed 09:48:29 AM 39.8050 -108.4375 236° Southwest 387 445 38,000  Level Denver Center
Wed 09:49:30 AM 39.7464 -108.5514 236° Southwest 395 455 38,000  Level Denver Center
Wed 09:50:31 AM 39.6783 -108.6847 236° Southwest 396 456 38,000  Level Denver Center
Wed 09:51:32 AM 39.6153 -108.8022 235° Southwest 404 465 38,000  Level Denver Center
Wed 09:52:33 AM 39.5553 -108.9203 237° Southwest 389 448 38,000  Level Denver Center
Wed 09:53:33 AM 39.4967 -109.0328 236° Southwest 393 452 38,000  Level Denver Center
Wed 09:54:34 AM 39.4372 -109.1458 236° Southwest 396 456 38,000  Level Denver Center
Wed 09:55:35 AM 39.3669 -109.2772 235° Southwest 395 455 38,000  Level Denver Center
Wed 09:56:36 AM 39.3078 -109.3903 236° Southwest 397 457 38,000  Level Denver Center
Wed 09:57:22 AM 39.2586 -109.4861 236° Southwest 398 458 38,000  Level Salt Lake Center
Wed 09:58:23 AM 39.1972 -109.6003 235° Southwest 402 463 38,000  Level Salt Lake Center
Wed 09:58:38 AM 39.1764 -109.6372 234° Southwest 403 464 38,000  Level Denver Center
Wed 09:59:39 AM 39.1261 -109.7328 236° Southwest 403 464 38,000  Level Denver Center
Wed 10:00:41 AM 39.0467 -109.8867 236° Southwest 403 464 38,000  Level Denver Center
Wed 10:01:27 AM 38.9939 -109.9806 234° Southwest 405 466 38,000  Level Salt Lake Center
Wed 10:02:28 AM 38.9325 -110.0953 236° Southwest 407 468 38,000  Level Salt Lake Center
Wed 10:03:29 AM 38.8706 -110.2094 235° Southwest 406 467 38,000  Level Salt Lake Center
Wed 10:03:44 AM 38.8508 -110.2478 237° Southwest 406 467 38,000  Level Denver Center
Wed 10:04:45 AM 38.7831 -110.3569 231° Southwest 407 468 38,000  Level Denver Center
Wed 10:05:32 AM 38.7344 -110.4531 237° Southwest 403 464 38,000  Level Salt Lake Center
Wed 10:06:33 AM 38.6719 -110.5656 235° Southwest 404 465 38,000  Level Salt Lake Center
Wed 10:07:34 AM 38.5972 -110.6947 234° Southwest 404 465 38,000  Level Salt Lake Center
Wed 10:08:35 AM 38.5344 -110.8072 235° Southwest 405 466 38,000  Level Salt Lake Center
Wed 10:09:36 AM 38.4711 -110.9192 234° Southwest 406 467 38,000  Level Salt Lake Center
Wed 10:10:37 AM 38.4025 -111.0375 234° Southwest 404 465 38,000  Level Salt Lake Center
Wed 10:11:39 AM 38.3369 -111.1533 234° Southwest 405 466 38,000  Level Salt Lake Center
Wed 10:12:40 AM 38.2703 -111.2672 233° Southwest 403 464 38,000  Level Salt Lake Center
Wed 10:13:41 AM 38.1919 -111.4058 234° Southwest 403 464 38,000  Level Salt Lake Center
Wed 10:14:42 AM 38.1247 -111.5214 234° Southwest 406 467 38,000 -148 Level Salt Lake Center
Wed 10:15:43 AM 38.0578 -111.6369 234° Southwest 407 468 37,700 -585 Descending Salt Lake Center
Wed 10:16:45 AM 37.9914 -111.7514 234° Southwest 404 465 36,800 -927 Descending Salt Lake Center
Wed 10:17:46 AM 37.9242 -111.8642 233° Southwest 402 463 35,800 -934 Descending Salt Lake Center
Wed 10:18:47 AM 37.8550 -111.9814 233° Southwest 413 475 34,900 -984 Descending Salt Lake Center
Wed 10:19:48 AM 37.7883 -112.0944 233° Southwest 405 466 33,800 -1,024 Descending Salt Lake Center
Wed 10:20:50 AM 37.7228 -112.2056 233° Southwest 397 457 32,800 -878 Descending Salt Lake Center
Wed 10:21:51 AM 37.6567 -112.3153 233° Southwest 393 452 32,000 -393 Descending Salt Lake Center
Wed 10:22:52 AM 37.5914 -112.4247 233° Southwest 390 449 32,000  Level Salt Lake Center
Wed 10:23:54 AM 37.5267 -112.5342 233° Southwest 388 447 32,000  Level Salt Lake Center
Wed 10:24:55 AM 37.4478 -112.6639 233° Southwest 385 443 32,000 -98 Level Salt Lake Center
Wed 10:25:57 AM 37.3817 -112.7725 233° Southwest 385 443 31,800 -585 Descending Salt Lake Center
Wed 10:26:58 AM 37.3150 -112.8811 232° Southwest 386 444 30,800 -1,033 Descending Salt Lake Center
Wed 10:27:59 AM 37.2497 -112.9897 233° Southwest 388 447 29,700 -1,024 Descending Salt Lake Center
Wed 10:29:01 AM 37.1850 -113.0958 233° Southwest 384 442 28,700 -891 Descending Salt Lake Center
Wed 10:30:07 AM 37.1228 -113.1961 232° Southwest 369 425 27,800 -898 Descending Los Angeles Center
Wed 10:31:08 AM 37.0614 -113.2975 233° Southwest 365 420 26,800 -1,073 Descending Los Angeles Center
Wed 10:32:10 AM 36.9864 -113.4197 232° Southwest 369 425 25,600 -1,065 Descending Los Angeles Center
Wed 10:33:12 AM 36.9239 -113.5214 232° Southwest 369 425 24,600 -1,024 Descending Los Angeles Center
Wed 10:34:13 AM 36.8633 -113.6206 233° Southwest 361 415 23,500 -976 Descending Los Angeles Center
Wed 10:35:15 AM 36.8036 -113.7167 232° Southwest 353 406 22,600 -968 Descending Los Angeles Center
Wed 10:36:17 AM 36.7439 -113.8108 232° Southwest 348 400 21,500 -1,902 Descending Los Angeles Center
Wed 10:37:18 AM 36.6814 -113.9117 232° Southwest 359 413 18,700 -2,439 Descending Los Angeles Center
Wed 10:38:20 AM 36.6194 -114.0142 233° Southwest 369 425 16,500 -2,129 Descending Los Angeles Center
Wed 10:39:22 AM 36.5511 -114.1333 235° Southwest 359 413 14,300 -1,597 Descending Los Angeles Center
Wed 10:40:24 AM 36.5081 -114.2314 241° Southwest 333 383 13,200 -992 Descending Los Angeles Center
Wed 10:41:29 AM 36.4639 -114.3383 243° Southwest 306 352 12,200 -688 Descending Los Angeles Center
Wed 10:42:00 AM 36.4417 -114.3833 238° Southwest 306 352 12,100 -207 Descending Los Angeles Center
Wed 10:42:27 AM 36.4250 -114.4150 237° Southwest 307 353 12,000  Descending Los Angeles Center
Wed 10:43:00 AM 36.3994 -114.4756 242° Southwest 305 351 12,100 -290 Climbing Los Angeles Center
Wed 10:43:29 AM 36.3672 -114.4922 203° Southwest 319 367 11,700 -885 Descending Los Angeles Center
Wed 10:44:01 AM 36.3183 -114.5192 204° Southwest 318 366 11,200 -968 Descending Los Angeles Center
Wed 10:44:31 AM 36.2850 -114.5303 195° South 316 364 10,700 -984 Descending Los Angeles Center
Wed 10:45:02 AM 36.2375 -114.5544 202° Southwest 313 360 10,200 -984 Descending Los Angeles Center
Wed 10:45:32 AM 36.2044 -114.5678 198° South 310 357 9,700 -1,091 Descending Los Angeles Center
Wed 10:45:57 AM 36.1636 -114.5928 206° Southwest 306 352 9,200 -1,065 Descending Los Angeles Center
Wed 10:46:34 AM 36.1261 -114.6058 196° South 304 350 8,600 -1,100 Descending Los Angeles Center
Wed 10:46:57 AM 36.0917 -114.6386 218° Southwest 287 330 8,100 -581 Descending Los Angeles Center
Wed 10:47:36 AM 36.0833 -114.6900 259° West 269 310 8,000  Descending Los Angeles Center
Wed 10:48:04 AM 36.0750 -114.7294 255° West 245 282 8,100  Climbing Los Angeles Center
Wed 10:48:38 AM 36.0714 -114.7706 264° West 247 284 8,000  Descending Los Angeles Center
Wed 10:49:05 AM 36.0747 -114.8067 277° West 239 275 8,100 -98 Climbing Los Angeles Center
Wed 10:49:39 AM 36.0728 -114.8522 267° West 240 276 7,900 -689 Descending Los Angeles Center
Wed 10:50:06 AM 36.0731 -114.8872 271° West 213 245 7,400 -1,548 Descending Los Angeles Center
Wed 10:50:41 AM 36.0736 -114.9206 271° West 222 255 6,300 -1,869 Descending Los Angeles Center
Wed 10:51:07 AM 36.0744 -114.9531 272° West 194 223 5,500 -1,548 Descending Los Angeles Center
Wed 10:51:43 AM 36.0739 -114.9853 269° West 200 230 4,700 -1,475 Descending Los Angeles Center
Wed 10:52:08 AM 36.0736 -115.0175 269° West 186 214 4,000 -1,355 Descending Los Angeles Center
Wed 10:52:45 AM 36.0742 -115.0469 271° West 190 219 3,300 -1,000 Descending Los Angeles Center
Wed 10:53:08 AM 36.0728 -115.0736 266° West 161 185 3,000 -787 Descending Los Angeles Center
Wed 10:53:46 AM 36.0731 -115.0972 271° West 170 196 2,500 -600 Descending Los Angeles Center
Wed 10:54:48 AM 36.0733 -115.1464 270° West 154 177 2,000 -484 Descending Los Angeles Center
Wed 10:56:00 AM 36.0667 -115.1500 219° Southwest  Level FlightAware Approximate

Login

Don't have an account? Register now (free) for customized features, flight alerts, and more!